sensor_id;sensor_type;location;lat;lon;timestamp;P1;durP1;ratioP1;P2;durP2;ratioP2
69226;SDS011;56334;52.398;7.552;2024-01-30T00:01:42;21.48;;;10.15;;
69226;SDS011;56334;52.398;7.552;2024-01-30T00:04:08;23.52;;;11.07;;
69226;SDS011;56334;52.398;7.552;2024-01-30T00:06:34;24.23;;;11.13;;
69226;SDS011;56334;52.398;7.552;2024-01-30T00:09:00;21.98;;;11.02;;
69226;SDS011;56334;52.398;7.552;2024-01-30T00:11:26;21.88;;;10.10;;
69226;SDS011;56334;52.398;7.552;2024-01-30T00:13:53;22.75;;;11.07;;
69226;SDS011;56334;52.398;7.552;2024-01-30T00:16:22;20.38;;;9.95;;
69226;SDS011;56334;52.398;7.552;2024-01-30T00:18:49;19.35;;;10.05;;
69226;SDS011;56334;52.398;7.552;2024-01-30T00:21:15;21.13;;;10.55;;
69226;SDS011;56334;52.398;7.552;2024-01-30T00:23:41;20.80;;;9.73;;
69226;SDS011;56334;52.398;7.552;2024-01-30T00:26:07;21.38;;;10.50;;
69226;SDS011;56334;52.398;7.552;2024-01-30T00:28:33;22.50;;;9.52;;
69226;SDS011;56334;52.398;7.552;2024-01-30T00:30:59;20.77;;;10.70;;
69226;SDS011;56334;52.398;7.552;2024-01-30T00:33:25;22.42;;;10.23;;
69226;SDS011;56334;52.398;7.552;2024-01-30T00:35:51;20.10;;;9.50;;
69226;SDS011;56334;52.398;7.552;2024-01-30T00:38:17;23.63;;;10.98;;
69226;SDS011;56334;52.398;7.552;2024-01-30T00:40:43;20.98;;;10.75;;
69226;SDS011;56334;52.398;7.552;2024-01-30T00:43:09;20.38;;;9.60;;
69226;SDS011;56334;52.398;7.552;2024-01-30T00:45:35;20.10;;;10.15;;
69226;SDS011;56334;52.398;7.552;2024-01-30T00:48:01;22.67;;;10.57;;
69226;SDS011;56334;52.398;7.552;2024-01-30T00:50:27;21.65;;;9.98;;
69226;SDS011;56334;52.398;7.552;2024-01-30T00:52:53;22.80;;;10.10;;
69226;SDS011;56334;52.398;7.552;2024-01-30T00:55:19;20.40;;;10.00;;
69226;SDS011;56334;52.398;7.552;2024-01-30T00:57:45;19.40;;;9.90;;
69226;SDS011;56334;52.398;7.552;2024-01-30T01:00:12;21.27;;;10.07;;
69226;SDS011;56334;52.398;7.552;2024-01-30T01:02:41;20.63;;;10.30;;
69226;SDS011;56334;52.398;7.552;2024-01-30T01:05:07;22.17;;;9.95;;
69226;SDS011;56334;52.398;7.552;2024-01-30T01:07:33;21.55;;;9.82;;
69226;SDS011;56334;52.398;7.552;2024-01-30T01:09:59;21.98;;;10.18;;
69226;SDS011;56334;52.398;7.552;2024-01-30T01:12:25;24.52;;;10.73;;
69226;SDS011;56334;52.398;7.552;2024-01-30T01:14:51;21.85;;;9.90;;
69226;SDS011;56334;52.398;7.552;2024-01-30T01:17:17;22.83;;;9.73;;
69226;SDS011;56334;52.398;7.552;2024-01-30T01:19:43;21.30;;;10.52;;
69226;SDS011;56334;52.398;7.552;2024-01-30T01:22:10;20.15;;;9.82;;
69226;SDS011;56334;52.398;7.552;2024-01-30T01:24:36;21.35;;;9.88;;
69226;SDS011;56334;52.398;7.552;2024-01-30T01:27:02;21.75;;;10.20;;
69226;SDS011;56334;52.398;7.552;2024-01-30T01:29:28;19.40;;;10.05;;
69226;SDS011;56334;52.398;7.552;2024-01-30T01:31:54;23.05;;;9.90;;
69226;SDS011;56334;52.398;7.552;2024-01-30T01:34:21;21.70;;;10.02;;
69226;SDS011;56334;52.398;7.552;2024-01-30T01:36:47;20.33;;;9.50;;
69226;SDS011;56334;52.398;7.552;2024-01-30T01:39:13;20.42;;;9.82;;
69226;SDS011;56334;52.398;7.552;2024-01-30T01:41:39;20.45;;;10.00;;
69226;SDS011;56334;52.398;7.552;2024-01-30T01:44:06;20.85;;;9.93;;
69226;SDS011;56334;52.398;7.552;2024-01-30T01:46:33;17.83;;;9.38;;
69226;SDS011;56334;52.398;7.552;2024-01-30T01:48:59;18.70;;;9.15;;
69226;SDS011;56334;52.398;7.552;2024-01-30T01:51:27;21.52;;;10.25;;
69226;SDS011;56334;52.398;7.552;2024-01-30T01:53:56;20.63;;;10.13;;
69226;SDS011;56334;52.398;7.552;2024-01-30T01:56:23;22.15;;;10.00;;
69226;SDS011;56334;52.398;7.552;2024-01-30T01:58:49;20.65;;;10.07;;
69226;SDS011;56334;52.398;7.552;2024-01-30T02:01:16;18.50;;;9.13;;
69226;SDS011;56334;52.398;7.552;2024-01-30T02:03:42;18.95;;;9.32;;
69226;SDS011;56334;52.398;7.552;2024-01-30T02:06:08;19.67;;;10.27;;
69226;SDS011;56334;52.398;7.552;2024-01-30T02:08:34;21.45;;;10.52;;
69226;SDS011;56334;52.398;7.552;2024-01-30T02:11:02;18.05;;;9.40;;
69226;SDS011;56334;52.398;7.552;2024-01-30T02:13:28;19.17;;;9.30;;
69226;SDS011;56334;52.398;7.552;2024-01-30T02:15:53;20.08;;;9.65;;
69226;SDS011;56334;52.398;7.552;2024-01-30T02:18:20;20.55;;;9.18;;
69226;SDS011;56334;52.398;7.552;2024-01-30T02:20:49;20.58;;;10.27;;
69226;SDS011;56334;52.398;7.552;2024-01-30T02:25:42;21.40;;;9.93;;
69226;SDS011;56334;52.398;7.552;2024-01-30T02:28:12;20.17;;;9.85;;
69226;SDS011;56334;52.398;7.552;2024-01-30T02:30:39;21.38;;;9.45;;
69226;SDS011;56334;52.398;7.552;2024-01-30T02:33:05;20.90;;;9.93;;
69226;SDS011;56334;52.398;7.552;2024-01-30T02:35:31;20.38;;;9.70;;
69226;SDS011;56334;52.398;7.552;2024-01-30T02:37:58;21.05;;;10.40;;
69226;SDS011;56334;52.398;7.552;2024-01-30T02:40:24;18.88;;;9.25;;
69226;SDS011;56334;52.398;7.552;2024-01-30T02:42:50;19.85;;;9.45;;
69226;SDS011;56334;52.398;7.552;2024-01-30T02:45:16;20.55;;;9.77;;
69226;SDS011;56334;52.398;7.552;2024-01-30T02:47:42;21.23;;;9.88;;
69226;SDS011;56334;52.398;7.552;2024-01-30T02:50:09;19.90;;;10.00;;
69226;SDS011;56334;52.398;7.552;2024-01-30T02:52:35;19.30;;;9.50;;
69226;SDS011;56334;52.398;7.552;2024-01-30T02:55:01;20.55;;;10.15;;
69226;SDS011;56334;52.398;7.552;2024-01-30T02:57:28;20.13;;;10.45;;
69226;SDS011;56334;52.398;7.552;2024-01-30T02:59:54;20.50;;;9.57;;
69226;SDS011;56334;52.398;7.552;2024-01-30T03:02:20;20.52;;;9.88;;
69226;SDS011;56334;52.398;7.552;2024-01-30T03:04:47;19.48;;;9.73;;
69226;SDS011;56334;52.398;7.552;2024-01-30T03:07:13;23.30;;;9.85;;
69226;SDS011;56334;52.398;7.552;2024-01-30T03:09:40;18.95;;;9.88;;
69226;SDS011;56334;52.398;7.552;2024-01-30T03:12:07;19.98;;;9.27;;
69226;SDS011;56334;52.398;7.552;2024-01-30T03:14:33;19.42;;;9.32;;
69226;SDS011;56334;52.398;7.552;2024-01-30T03:16:59;21.98;;;10.25;;
69226;SDS011;56334;52.398;7.552;2024-01-30T03:19:25;21.92;;;10.63;;
69226;SDS011;56334;52.398;7.552;2024-01-30T03:21:51;20.38;;;9.43;;
69226;SDS011;56334;52.398;7.552;2024-01-30T03:24:17;18.98;;;9.23;;
69226;SDS011;56334;52.398;7.552;2024-01-30T03:26:43;19.13;;;9.63;;
69226;SDS011;56334;52.398;7.552;2024-01-30T03:29:09;20.42;;;9.98;;
69226;SDS011;56334;52.398;7.552;2024-01-30T03:31:35;22.45;;;9.95;;
69226;SDS011;56334;52.398;7.552;2024-01-30T03:34:01;23.08;;;10.27;;
69226;SDS011;56334;52.398;7.552;2024-01-30T03:36:28;24.35;;;10.77;;
69226;SDS011;56334;52.398;7.552;2024-01-30T03:38:54;21.77;;;9.38;;
69226;SDS011;56334;52.398;7.552;2024-01-30T03:41:20;19.92;;;9.70;;
69226;SDS011;56334;52.398;7.552;2024-01-30T03:43:47;19.30;;;9.73;;
69226;SDS011;56334;52.398;7.552;2024-01-30T03:46:13;22.63;;;10.50;;
69226;SDS011;56334;52.398;7.552;2024-01-30T03:48:39;23.25;;;9.60;;
69226;SDS011;56334;52.398;7.552;2024-01-30T03:51:05;20.75;;;9.30;;
69226;SDS011;56334;52.398;7.552;2024-01-30T03:53:31;22.77;;;11.13;;
69226;SDS011;56334;52.398;7.552;2024-01-30T03:55:57;21.92;;;10.48;;
69226;SDS011;56334;52.398;7.552;2024-01-30T03:58:23;21.40;;;10.20;;
69226;SDS011;56334;52.398;7.552;2024-01-30T04:00:49;25.58;;;10.60;;
69226;SDS011;56334;52.398;7.552;2024-01-30T04:03:15;21.58;;;10.20;;
69226;SDS011;56334;52.398;7.552;2024-01-30T04:05:41;22.90;;;10.32;;
69226;SDS011;56334;52.398;7.552;2024-01-30T04:08:07;20.77;;;10.02;;
69226;SDS011;56334;52.398;7.552;2024-01-30T04:10:33;22.17;;;9.60;;
69226;SDS011;56334;52.398;7.552;2024-01-30T04:13:00;19.90;;;10.02;;
69226;SDS011;56334;52.398;7.552;2024-01-30T04:15:26;22.55;;;10.30;;
69226;SDS011;56334;52.398;7.552;2024-01-30T04:17:52;21.40;;;9.65;;
69226;SDS011;56334;52.398;7.552;2024-01-30T04:20:18;22.63;;;10.60;;
69226;SDS011;56334;52.398;7.552;2024-01-30T04:22:44;22.15;;;10.45;;
69226;SDS011;56334;52.398;7.552;2024-01-30T04:25:10;21.92;;;9.80;;
69226;SDS011;56334;52.398;7.552;2024-01-30T04:27:36;21.80;;;10.18;;
69226;SDS011;56334;52.398;7.552;2024-01-30T04:30:03;22.88;;;10.07;;
69226;SDS011;56334;52.398;7.552;2024-01-30T04:32:29;23.65;;;10.27;;
69226;SDS011;56334;52.398;7.552;2024-01-30T04:34:55;21.35;;;10.00;;
69226;SDS011;56334;52.398;7.552;2024-01-30T04:37:21;21.38;;;10.07;;
69226;SDS011;56334;52.398;7.552;2024-01-30T04:39:47;20.70;;;9.98;;
69226;SDS011;56334;52.398;7.552;2024-01-30T04:42:13;21.05;;;10.18;;
69226;SDS011;56334;52.398;7.552;2024-01-30T04:44:39;20.45;;;10.25;;
69226;SDS011;56334;52.398;7.552;2024-01-30T04:47:05;21.92;;;10.30;;
69226;SDS011;56334;52.398;7.552;2024-01-30T04:49:33;20.20;;;9.52;;
69226;SDS011;56334;52.398;7.552;2024-01-30T04:52:00;21.95;;;10.40;;
69226;SDS011;56334;52.398;7.552;2024-01-30T04:54:27;20.60;;;10.20;;
69226;SDS011;56334;52.398;7.552;2024-01-30T04:56:53;21.73;;;9.80;;
69226;SDS011;56334;52.398;7.552;2024-01-30T04:59:19;21.98;;;10.40;;
69226;SDS011;56334;52.398;7.552;2024-01-30T05:01:45;20.48;;;9.68;;
69226;SDS011;56334;52.398;7.552;2024-01-30T05:04:11;19.38;;;9.52;;
69226;SDS011;56334;52.398;7.552;2024-01-30T05:06:37;20.55;;;10.15;;
69226;SDS011;56334;52.398;7.552;2024-01-30T05:09:03;22.77;;;9.95;;
69226;SDS011;56334;52.398;7.552;2024-01-30T05:11:30;21.50;;;9.68;;
69226;SDS011;56334;52.398;7.552;2024-01-30T05:13:56;21.88;;;10.20;;
69226;SDS011;56334;52.398;7.552;2024-01-30T05:16:22;19.63;;;10.30;;
69226;SDS011;56334;52.398;7.552;2024-01-30T05:18:48;21.48;;;9.70;;
69226;SDS011;56334;52.398;7.552;2024-01-30T05:21:14;21.42;;;10.15;;
69226;SDS011;56334;52.398;7.552;2024-01-30T05:23:40;21.40;;;9.93;;
69226;SDS011;56334;52.398;7.552;2024-01-30T05:26:06;20.42;;;9.75;;
69226;SDS011;56334;52.398;7.552;2024-01-30T05:28:32;21.02;;;9.35;;
69226;SDS011;56334;52.398;7.552;2024-01-30T05:30:58;21.35;;;10.48;;
69226;SDS011;56334;52.398;7.552;2024-01-30T05:33:24;22.23;;;9.93;;
69226;SDS011;56334;52.398;7.552;2024-01-30T05:35:51;22.67;;;9.57;;
69226;SDS011;56334;52.398;7.552;2024-01-30T05:38:19;19.35;;;9.38;;
69226;SDS011;56334;52.398;7.552;2024-01-30T05:40:45;21.45;;;10.02;;
69226;SDS011;56334;52.398;7.552;2024-01-30T05:43:11;20.83;;;9.73;;
69226;SDS011;56334;52.398;7.552;2024-01-30T05:45:37;20.58;;;9.30;;
69226;SDS011;56334;52.398;7.552;2024-01-30T05:48:04;23.38;;;9.88;;
69226;SDS011;56334;52.398;7.552;2024-01-30T05:50:30;20.98;;;9.23;;
69226;SDS011;56334;52.398;7.552;2024-01-30T05:52:56;21.55;;;10.27;;
69226;SDS011;56334;52.398;7.552;2024-01-30T05:55:22;18.83;;;9.40;;
69226;SDS011;56334;52.398;7.552;2024-01-30T05:57:48;19.02;;;8.95;;
69226;SDS011;56334;52.398;7.552;2024-01-30T06:00:14;21.42;;;9.40;;
69226;SDS011;56334;52.398;7.552;2024-01-30T06:02:40;21.77;;;9.45;;
69226;SDS011;56334;52.398;7.552;2024-01-30T06:05:06;22.92;;;9.73;;
69226;SDS011;56334;52.398;7.552;2024-01-30T06:07:32;19.98;;;9.55;;
69226;SDS011;56334;52.398;7.552;2024-01-30T06:09:58;23.95;;;10.57;;
69226;SDS011;56334;52.398;7.552;2024-01-30T06:12:27;23.50;;;10.23;;
69226;SDS011;56334;52.398;7.552;2024-01-30T06:14:54;21.20;;;9.75;;
69226;SDS011;56334;52.398;7.552;2024-01-30T06:17:22;22.52;;;10.07;;
69226;SDS011;56334;52.398;7.552;2024-01-30T06:19:48;20.08;;;9.02;;
69226;SDS011;56334;52.398;7.552;2024-01-30T06:22:14;19.88;;;8.95;;
69226;SDS011;56334;52.398;7.552;2024-01-30T06:24:40;19.13;;;9.30;;
69226;SDS011;56334;52.398;7.552;2024-01-30T06:27:06;20.45;;;9.52;;
69226;SDS011;56334;52.398;7.552;2024-01-30T06:29:32;20.65;;;9.02;;
69226;SDS011;56334;52.398;7.552;2024-01-30T06:31:58;22.08;;;9.63;;
69226;SDS011;56334;52.398;7.552;2024-01-30T06:34:24;23.42;;;9.82;;
69226;SDS011;56334;52.398;7.552;2024-01-30T06:36:51;22.45;;;9.45;;
69226;SDS011;56334;52.398;7.552;2024-01-30T06:39:17;22.80;;;9.88;;
69226;SDS011;56334;52.398;7.552;2024-01-30T06:41:43;18.60;;;9.45;;
69226;SDS011;56334;52.398;7.552;2024-01-30T06:44:11;19.48;;;9.55;;
69226;SDS011;56334;52.398;7.552;2024-01-30T06:46:37;22.23;;;10.50;;
69226;SDS011;56334;52.398;7.552;2024-01-30T06:49:04;19.30;;;9.18;;
69226;SDS011;56334;52.398;7.552;2024-01-30T06:51:30;18.67;;;9.05;;
69226;SDS011;56334;52.398;7.552;2024-01-30T06:53:56;18.60;;;9.05;;
69226;SDS011;56334;52.398;7.552;2024-01-30T06:56:22;19.48;;;9.50;;
69226;SDS011;56334;52.398;7.552;2024-01-30T06:58:48;18.88;;;9.38;;
69226;SDS011;56334;52.398;7.552;2024-01-30T07:01:14;21.70;;;10.15;;
69226;SDS011;56334;52.398;7.552;2024-01-30T07:03:40;24.73;;;9.25;;
69226;SDS011;56334;52.398;7.552;2024-01-30T07:06:07;20.67;;;9.80;;
69226;SDS011;56334;52.398;7.552;2024-01-30T07:08:33;20.90;;;9.23;;
69226;SDS011;56334;52.398;7.552;2024-01-30T07:10:59;19.88;;;9.60;;
69226;SDS011;56334;52.398;7.552;2024-01-30T07:13:25;20.38;;;8.82;;
69226;SDS011;56334;52.398;7.552;2024-01-30T07:15:51;20.85;;;9.60;;
69226;SDS011;56334;52.398;7.552;2024-01-30T07:18:17;20.42;;;9.75;;
69226;SDS011;56334;52.398;7.552;2024-01-30T07:20:43;21.02;;;9.55;;
69226;SDS011;56334;52.398;7.552;2024-01-30T07:23:12;18.85;;;8.68;;
69226;SDS011;56334;52.398;7.552;2024-01-30T07:25:39;21.40;;;9.65;;
69226;SDS011;56334;52.398;7.552;2024-01-30T07:30:32;19.33;;;9.15;;
69226;SDS011;56334;52.398;7.552;2024-01-30T07:32:58;21.33;;;9.65;;
69226;SDS011;56334;52.398;7.552;2024-01-30T07:35:24;19.80;;;9.18;;
69226;SDS011;56334;52.398;7.552;2024-01-30T07:37:50;22.95;;;9.95;;
69226;SDS011;56334;52.398;7.552;2024-01-30T07:40:16;21.27;;;8.88;;
69226;SDS011;56334;52.398;7.552;2024-01-30T07:42:42;21.15;;;9.35;;
69226;SDS011;56334;52.398;7.552;2024-01-30T07:45:09;20.45;;;9.55;;
69226;SDS011;56334;52.398;7.552;2024-01-30T07:47:35;21.52;;;9.55;;
69226;SDS011;56334;52.398;7.552;2024-01-30T07:50:01;17.55;;;8.20;;
69226;SDS011;56334;52.398;7.552;2024-01-30T07:52:27;20.65;;;9.30;;
69226;SDS011;56334;52.398;7.552;2024-01-30T07:54:53;22.08;;;9.45;;
69226;SDS011;56334;52.398;7.552;2024-01-30T07:57:20;19.80;;;9.32;;
69226;SDS011;56334;52.398;7.552;2024-01-30T07:59:46;22.58;;;9.45;;
69226;SDS011;56334;52.398;7.552;2024-01-30T08:02:12;22.75;;;9.20;;
69226;SDS011;56334;52.398;7.552;2024-01-30T08:04:38;21.30;;;9.15;;
69226;SDS011;56334;52.398;7.552;2024-01-30T08:07:04;19.80;;;9.02;;
69226;SDS011;56334;52.398;7.552;2024-01-30T08:09:31;18.73;;;8.43;;
69226;SDS011;56334;52.398;7.552;2024-01-30T08:11:57;17.95;;;8.68;;
69226;SDS011;56334;52.398;7.552;2024-01-30T08:14:23;21.33;;;9.63;;
69226;SDS011;56334;52.398;7.552;2024-01-30T08:16:49;19.38;;;9.10;;
69226;SDS011;56334;52.398;7.552;2024-01-30T08:19:15;19.77;;;8.88;;
69226;SDS011;56334;52.398;7.552;2024-01-30T08:21:41;20.40;;;10.27;;
69226;SDS011;56334;52.398;7.552;2024-01-30T08:24:07;22.00;;;9.27;;
69226;SDS011;56334;52.398;7.552;2024-01-30T08:26:33;22.92;;;9.40;;
69226;SDS011;56334;52.398;7.552;2024-01-30T08:29:00;20.13;;;8.32;;
69226;SDS011;56334;52.398;7.552;2024-01-30T08:31:26;19.88;;;9.68;;
69226;SDS011;56334;52.398;7.552;2024-01-30T08:33:53;21.60;;;9.32;;
69226;SDS011;56334;52.398;7.552;2024-01-30T08:36:19;19.35;;;9.05;;
69226;SDS011;56334;52.398;7.552;2024-01-30T08:38:45;20.45;;;8.85;;
69226;SDS011;56334;52.398;7.552;2024-01-30T08:41:12;19.77;;;8.80;;
69226;SDS011;56334;52.398;7.552;2024-01-30T08:43:38;21.23;;;9.73;;
69226;SDS011;56334;52.398;7.552;2024-01-30T08:46:04;17.85;;;9.07;;
69226;SDS011;56334;52.398;7.552;2024-01-30T08:48:30;23.45;;;9.30;;
69226;SDS011;56334;52.398;7.552;2024-01-30T08:50:55;18.75;;;9.07;;
69226;SDS011;56334;52.398;7.552;2024-01-30T08:53:21;20.30;;;8.98;;
69226;SDS011;56334;52.398;7.552;2024-01-30T08:55:47;20.48;;;9.15;;
69226;SDS011;56334;52.398;7.552;2024-01-30T08:58:13;20.52;;;8.65;;
69226;SDS011;56334;52.398;7.552;2024-01-30T09:00:40;20.63;;;9.15;;
69226;SDS011;56334;52.398;7.552;2024-01-30T09:03:06;17.48;;;8.35;;
69226;SDS011;56334;52.398;7.552;2024-01-30T09:05:32;17.73;;;8.52;;
69226;SDS011;56334;52.398;7.552;2024-01-30T09:07:58;20.33;;;9.10;;
69226;SDS011;56334;52.398;7.552;2024-01-30T09:10:24;18.75;;;8.65;;
69226;SDS011;56334;52.398;7.552;2024-01-30T09:12:50;17.45;;;8.32;;
69226;SDS011;56334;52.398;7.552;2024-01-30T09:15:17;20.80;;;9.13;;
69226;SDS011;56334;52.398;7.552;2024-01-30T09:17:44;18.10;;;9.05;;
69226;SDS011;56334;52.398;7.552;2024-01-30T09:20:10;19.08;;;8.85;;
69226;SDS011;56334;52.398;7.552;2024-01-30T09:22:36;21.58;;;8.88;;
69226;SDS011;56334;52.398;7.552;2024-01-30T09:25:03;19.80;;;9.13;;
69226;SDS011;56334;52.398;7.552;2024-01-30T09:27:29;20.05;;;8.73;;
69226;SDS011;56334;52.398;7.552;2024-01-30T09:29:56;18.20;;;8.63;;
69226;SDS011;56334;52.398;7.552;2024-01-30T09:32:22;17.75;;;8.05;;
69226;SDS011;56334;52.398;7.552;2024-01-30T09:34:47;17.35;;;7.85;;
69226;SDS011;56334;52.398;7.552;2024-01-30T09:37:13;18.80;;;8.68;;
69226;SDS011;56334;52.398;7.552;2024-01-30T09:39:42;19.05;;;8.95;;
69226;SDS011;56334;52.398;7.552;2024-01-30T09:42:14;18.75;;;8.32;;
69226;SDS011;56334;52.398;7.552;2024-01-30T09:44:43;17.42;;;8.10;;
69226;SDS011;56334;52.398;7.552;2024-01-30T09:47:10;17.33;;;7.82;;
69226;SDS011;56334;52.398;7.552;2024-01-30T09:49:36;18.30;;;7.95;;
69226;SDS011;56334;52.398;7.552;2024-01-30T09:52:02;20.52;;;8.32;;
69226;SDS011;56334;52.398;7.552;2024-01-30T09:54:29;18.02;;;7.72;;
69226;SDS011;56334;52.398;7.552;2024-01-30T09:56:58;18.00;;;7.82;;
69226;SDS011;56334;52.398;7.552;2024-01-30T09:59:24;18.02;;;7.68;;
69226;SDS011;56334;52.398;7.552;2024-01-30T10:01:50;16.05;;;8.23;;
69226;SDS011;56334;52.398;7.552;2024-01-30T10:04:16;17.33;;;8.27;;
69226;SDS011;56334;52.398;7.552;2024-01-30T10:06:42;19.63;;;7.90;;
69226;SDS011;56334;52.398;7.552;2024-01-30T10:09:09;17.10;;;7.95;;
69226;SDS011;56334;52.398;7.552;2024-01-30T10:11:35;17.48;;;7.28;;
69226;SDS011;56334;52.398;7.552;2024-01-30T10:14:01;17.13;;;7.18;;
69226;SDS011;56334;52.398;7.552;2024-01-30T10:16:27;16.80;;;7.53;;
69226;SDS011;56334;52.398;7.552;2024-01-30T10:18:53;16.80;;;7.35;;
69226;SDS011;56334;52.398;7.552;2024-01-30T10:21:20;20.45;;;7.30;;
69226;SDS011;56334;52.398;7.552;2024-01-30T10:23:46;16.90;;;7.78;;
69226;SDS011;56334;52.398;7.552;2024-01-30T10:26:12;15.73;;;7.55;;
69226;SDS011;56334;52.398;7.552;2024-01-30T10:28:38;16.52;;;7.38;;
69226;SDS011;56334;52.398;7.552;2024-01-30T10:31:04;16.42;;;7.20;;
69226;SDS011;56334;52.398;7.552;2024-01-30T10:33:31;18.60;;;7.90;;
69226;SDS011;56334;52.398;7.552;2024-01-30T10:36:00;18.25;;;7.82;;
69226;SDS011;56334;52.398;7.552;2024-01-30T10:38:27;16.58;;;7.53;;
69226;SDS011;56334;52.398;7.552;2024-01-30T10:40:56;16.17;;;8.60;;
69226;SDS011;56334;52.398;7.552;2024-01-30T10:43:22;18.42;;;7.22;;
69226;SDS011;56334;52.398;7.552;2024-01-30T10:45:49;16.27;;;7.03;;
69226;SDS011;56334;52.398;7.552;2024-01-30T10:48:15;18.92;;;7.80;;
69226;SDS011;56334;52.398;7.552;2024-01-30T10:53:08;15.07;;;7.35;;
69226;SDS011;56334;52.398;7.552;2024-01-30T10:55:35;15.73;;;7.03;;
69226;SDS011;56334;52.398;7.552;2024-01-30T10:58:02;16.88;;;7.38;;
69226;SDS011;56334;52.398;7.552;2024-01-30T11:00:28;18.08;;;7.60;;
69226;SDS011;56334;52.398;7.552;2024-01-30T11:02:58;18.10;;;8.13;;
69226;SDS011;56334;52.398;7.552;2024-01-30T11:05:24;16.15;;;7.95;;
69226;SDS011;56334;52.398;7.552;2024-01-30T11:07:54;17.30;;;7.72;;
69226;SDS011;56334;52.398;7.552;2024-01-30T11:10:20;19.17;;;7.63;;
69226;SDS011;56334;52.398;7.552;2024-01-30T11:12:46;18.20;;;7.90;;
69226;SDS011;56334;52.398;7.552;2024-01-30T11:15:13;17.50;;;7.47;;
69226;SDS011;56334;52.398;7.552;2024-01-30T11:20:15;16.88;;;7.38;;
69226;SDS011;56334;52.398;7.552;2024-01-30T11:22:42;17.20;;;7.75;;
69226;SDS011;56334;52.398;7.552;2024-01-30T11:25:16;15.85;;;7.75;;
69226;SDS011;56334;52.398;7.552;2024-01-30T11:27:42;14.77;;;6.65;;
69226;SDS011;56334;52.398;7.552;2024-01-30T11:30:08;16.92;;;6.63;;
69226;SDS011;56334;52.398;7.552;2024-01-30T11:32:34;14.50;;;6.40;;
69226;SDS011;56334;52.398;7.552;2024-01-30T11:35:03;17.13;;;7.07;;
69226;SDS011;56334;52.398;7.552;2024-01-30T11:37:30;15.63;;;5.80;;
69226;SDS011;56334;52.398;7.552;2024-01-30T11:39:56;16.60;;;7.00;;
69226;SDS011;56334;52.398;7.552;2024-01-30T11:42:22;17.58;;;7.03;;
69226;SDS011;56334;52.398;7.552;2024-01-30T11:44:53;15.45;;;5.95;;
69226;SDS011;56334;52.398;7.552;2024-01-30T11:47:19;15.68;;;6.35;;
69226;SDS011;56334;52.398;7.552;2024-01-30T11:49:45;17.45;;;5.85;;
69226;SDS011;56334;52.398;7.552;2024-01-30T11:52:11;17.17;;;6.15;;
69226;SDS011;56334;52.398;7.552;2024-01-30T11:54:39;14.70;;;6.75;;
69226;SDS011;56334;52.398;7.552;2024-01-30T11:57:05;15.60;;;7.10;;
69226;SDS011;56334;52.398;7.552;2024-01-30T11:59:31;16.73;;;7.07;;
69226;SDS011;56334;52.398;7.552;2024-01-30T12:01:57;16.45;;;6.50;;
69226;SDS011;56334;52.398;7.552;2024-01-30T12:04:23;14.50;;;5.75;;
69226;SDS011;56334;52.398;7.552;2024-01-30T12:06:53;18.23;;;6.47;;
69226;SDS011;56334;52.398;7.552;2024-01-30T12:09:19;15.02;;;5.78;;
69226;SDS011;56334;52.398;7.552;2024-01-30T12:11:48;14.13;;;6.30;;
69226;SDS011;56334;52.398;7.552;2024-01-30T12:14:17;13.52;;;5.35;;
69226;SDS011;56334;52.398;7.552;2024-01-30T12:16:47;15.23;;;6.75;;
69226;SDS011;56334;52.398;7.552;2024-01-30T12:19:21;15.70;;;6.18;;
69226;SDS011;56334;52.398;7.552;2024-01-30T12:21:56;14.15;;;6.00;;
69226;SDS011;56334;52.398;7.552;2024-01-30T12:24:24;15.88;;;6.53;;
69226;SDS011;56334;52.398;7.552;2024-01-30T12:26:50;14.85;;;5.82;;
69226;SDS011;56334;52.398;7.552;2024-01-30T12:29:17;17.00;;;6.45;;
69226;SDS011;56334;52.398;7.552;2024-01-30T12:31:43;15.27;;;5.50;;
69226;SDS011;56334;52.398;7.552;2024-01-30T12:34:09;16.23;;;6.28;;
69226;SDS011;56334;52.398;7.552;2024-01-30T12:36:35;19.30;;;7.13;;
69226;SDS011;56334;52.398;7.552;2024-01-30T12:39:01;15.07;;;6.82;;
69226;SDS011;56334;52.398;7.552;2024-01-30T12:41:29;14.52;;;5.75;;
69226;SDS011;56334;52.398;7.552;2024-01-30T12:43:56;14.65;;;6.47;;
69226;SDS011;56334;52.398;7.552;2024-01-30T12:46:25;14.88;;;6.93;;
69226;SDS011;56334;52.398;7.552;2024-01-30T12:48:51;17.27;;;6.60;;
69226;SDS011;56334;52.398;7.552;2024-01-30T12:51:17;16.63;;;7.35;;
69226;SDS011;56334;52.398;7.552;2024-01-30T12:53:43;18.27;;;6.35;;
69226;SDS011;56334;52.398;7.552;2024-01-30T12:56:09;16.25;;;6.65;;
69226;SDS011;56334;52.398;7.552;2024-01-30T12:58:35;17.88;;;7.45;;
69226;SDS011;56334;52.398;7.552;2024-01-30T13:01:01;16.75;;;6.78;;
69226;SDS011;56334;52.398;7.552;2024-01-30T13:03:27;14.32;;;6.25;;
69226;SDS011;56334;52.398;7.552;2024-01-30T13:05:53;15.50;;;6.90;;
69226;SDS011;56334;52.398;7.552;2024-01-30T13:08:19;14.23;;;6.70;;
69226;SDS011;56334;52.398;7.552;2024-01-30T13:10:45;15.07;;;6.15;;
69226;SDS011;56334;52.398;7.552;2024-01-30T13:13:11;14.07;;;6.15;;
69226;SDS011;56334;52.398;7.552;2024-01-30T13:15:38;12.23;;;5.47;;
69226;SDS011;56334;52.398;7.552;2024-01-30T13:18:04;14.98;;;6.07;;
69226;SDS011;56334;52.398;7.552;2024-01-30T13:20:30;13.82;;;5.95;;
69226;SDS011;56334;52.398;7.552;2024-01-30T13:22:56;13.48;;;5.85;;
69226;SDS011;56334;52.398;7.552;2024-01-30T13:25:22;14.23;;;6.03;;
69226;SDS011;56334;52.398;7.552;2024-01-30T13:27:48;13.57;;;6.15;;
69226;SDS011;56334;52.398;7.552;2024-01-30T13:30:14;13.65;;;6.13;;
69226;SDS011;56334;52.398;7.552;2024-01-30T13:32:40;14.43;;;6.10;;
69226;SDS011;56334;52.398;7.552;2024-01-30T13:35:09;14.52;;;6.38;;
69226;SDS011;56334;52.398;7.552;2024-01-30T13:37:35;11.60;;;4.97;;
69226;SDS011;56334;52.398;7.552;2024-01-30T13:40:02;13.50;;;5.55;;
69226;SDS011;56334;52.398;7.552;2024-01-30T13:42:31;13.57;;;5.78;;
69226;SDS011;56334;52.398;7.552;2024-01-30T13:44:57;14.55;;;6.18;;
69226;SDS011;56334;52.398;7.552;2024-01-30T13:47:23;13.10;;;5.43;;
69226;SDS011;56334;52.398;7.552;2024-01-30T13:49:50;15.95;;;6.22;;
69226;SDS011;56334;52.398;7.552;2024-01-30T13:52:17;12.38;;;5.25;;
69226;SDS011;56334;52.398;7.552;2024-01-30T13:54:43;11.75;;;5.07;;
69226;SDS011;56334;52.398;7.552;2024-01-30T13:57:09;14.88;;;5.85;;
69226;SDS011;56334;52.398;7.552;2024-01-30T13:59:35;11.27;;;5.18;;
69226;SDS011;56334;52.398;7.552;2024-01-30T14:02:01;12.57;;;5.40;;
69226;SDS011;56334;52.398;7.552;2024-01-30T14:04:27;12.60;;;6.20;;
69226;SDS011;56334;52.398;7.552;2024-01-30T14:06:53;14.55;;;6.25;;
69226;SDS011;56334;52.398;7.552;2024-01-30T14:09:19;11.23;;;4.97;;
69226;SDS011;56334;52.398;7.552;2024-01-30T14:11:46;15.10;;;6.45;;
69226;SDS011;56334;52.398;7.552;2024-01-30T14:14:12;12.82;;;5.40;;
69226;SDS011;56334;52.398;7.552;2024-01-30T14:16:38;12.85;;;5.28;;
69226;SDS011;56334;52.398;7.552;2024-01-30T14:19:04;13.80;;;5.57;;
69226;SDS011;56334;52.398;7.552;2024-01-30T14:21:30;14.75;;;5.97;;
69226;SDS011;56334;52.398;7.552;2024-01-30T14:23:56;13.90;;;6.07;;
69226;SDS011;56334;52.398;7.552;2024-01-30T14:26:22;12.73;;;5.55;;
69226;SDS011;56334;52.398;7.552;2024-01-30T14:28:48;12.65;;;5.32;;
69226;SDS011;56334;52.398;7.552;2024-01-30T14:31:14;12.27;;;5.25;;
69226;SDS011;56334;52.398;7.552;2024-01-30T14:33:41;11.55;;;5.50;;
69226;SDS011;56334;52.398;7.552;2024-01-30T14:36:07;13.27;;;5.35;;